19 maggio 2022

Tempo Codice Tempo metereologico Temp. Vista Nuvole Vento METAR/SPECI
18:20
L
19 °C 0 m - 100°   100° 4 kt METAR ETWM 191620Z AUTO 10004KT //// // ////// 19/18 Q1016 ///
17:20
L
18 °C 0 m - 020°   020° 2 kt METAR ETWM 191520Z AUTO 02002KT //// // ////// 18/17 Q1016 ///
16:20
L
19 °C 0 m - 280°   280° 10 31 kt METAR ETWM 191420Z AUTO 28010G31KT //// // ////// 19/17 Q1019 ///
15:20
L
26 °C 0 m - 210°   210° 6 kt METAR ETWM 191320Z AUTO 21006KT //// // ////// 26/13 Q1016 ///
14:20
V
28 °C 10 km+ 20.000 ft 220°   220° 3 kt METAR ETWM 191220Z 22003KT 9999 FEW050 SCT160 BKN200 28/13 Q1015 BLU+
13:20
V
26 °C 10 km+ 19.000 ft 160°   160° 3 kt METAR ETWM 191120Z 16003KT 9999 FEW050 BKN190 BKN240 26/13 Q1016 BLU
12:20
V
25 °C 10 km+ 21.000 ft 290°   290° 3 kt METAR ETWM 191020Z 29003KT 9999 FEW075 BKN210 25/13 Q1017 BLU+
11:20
V
25 °C 10 km+ 18.000 ft 060°   060° 2 kt METAR ETWM 190920Z 06002KT 9999 FEW075 SCT160 BKN180 25/13 Q1017 BLU
10:20
V
24 °C 10 km+ 16.000 ft 260°   260° 2 kt METAR ETWM 190820Z 26002KT 9999 FEW075 BKN160 BKN230 24/13 Q1017 BLU
09:20
V
23 °C 10 km+ 18.000 ft 250°   250° 5 kt METAR ETWM 190720Z 25005KT 9999 FEW035 BKN180 23/13 Q1017 BLU
08:20
V
21 °C 10 km+ 21.000 ft 220°   220° 5 kt METAR ETWM 190620Z 22005KT 9999 FEW077 BKN210 21/14 Q1018 BLU+
07:20
V
18 °C 10 km+ 21.000 ft 170°   170° 3 kt METAR ETWM 190520Z 17003KT 9999 FEW075 SCT100 BKN210 18/14 Q1017 BLU+
06:20
V
14 °C 9 km 23.000 ft Var   Var 1 kt METAR ETWM 190420Z VRB01KT 9000 MIFG FEW070 BKN230 BKN370 14/13 Q1017 BLU+
05:20
L
14 °C 0 m - 040°   040° 2 kt METAR ETWM 190320Z AUTO 04002KT //// // ////// 14/13 Q1017 ///
04:20
L
14 °C 0 m - Var   Var 2 kt METAR ETWM 190220Z AUTO VRB02KT //// // ////// 14/13 Q1017 ///
03:20
L
15 °C 0 m - 020°   020° 2 kt METAR ETWM 190120Z AUTO 02002KT //// // ////// 15/14 Q1018 ///
02:20
L
15 °C 0 m - Var   000° 0 kt METAR ETWM 190020Z AUTO 00000KT //// // ////// 15/14 Q1018 ///
01:20
L
16 °C 0 m - 030°   030° 1 kt METAR ETWM 182320Z AUTO 03001KT //// // ////// 16/14 Q1019 ///
00:20
L
17 °C 0 m - 020°   020° 1 kt METAR ETWM 182220Z AUTO 02001KT //// // ////// 17/14 Q1019 ///

18 maggio 2022

Tempo Codice Tempo metereologico Temp. Vista Nuvole Vento METAR/SPECI
23:20
L
18 °C 0 m - 010°   010° 2 kt METAR ETWM 182120Z AUTO 01002KT //// // ////// 18/14 Q1019 ///
22:20
L
19 °C 0 m - 360°   360° 3 kt METAR ETWM 182020Z AUTO 36003KT //// // ////// 19/15 Q1020 ///
21:20
L
22 °C 0 m - 360°   360° 5 kt METAR ETWM 181920Z AUTO 36005KT //// // ////// 22/16 Q1019 ///
20:20
L
24 °C 0 m - 360°   360° 7 kt METAR ETWM 181820Z AUTO 36007KT //// // ////// 24/16 Q1019 ///
19:20
L
26 °C 0 m - 340°   340° 7 kt METAR ETWM 181720Z AUTO 34007KT //// // ////// 26/16 Q1019 ///
18:20
L
28 °C 0 m - 270°   270° 4 kt METAR ETWM 181620Z AUTO 27004KT //// // ////// 28/14 Q1019 ///
17:20
L
28 °C 0 m - 250°   250° 7 kt METAR ETWM 181520Z AUTO 25007KT //// // ////// 28/12 Q1019 ///
16:20
V
28 °C 10 km+ 38.000 ft 240°   240° 6 kt METAR ETWM 181420Z 24006KT 9999 FEW060 SCT100 BKN380 28/12 Q1019 BLU+
15:20
V
29 °C 10 km+ - 250°   250° 7 kt METAR ETWM 181320Z 25007KT 9999 FEW060 SCT380 29/13 Q1019 BLU+
14:20
V
29 °C 10 km+ - 230°   230° 7 kt METAR ETWM 181220Z 23007KT 9999 FEW058 SCT380 29/13 Q1019 BLU+
13:20
V
28 °C 10 km+ 37.000 ft 230°   230° 7 kt METAR ETWM 181120Z 23007KT 9999 FEW055 BKN370 28/12 Q1019 BLU+
12:20
V
27 °C 10 km+ 36.000 ft 200°   200° 6 kt METAR ETWM 181020Z 20006KT 9999 FEW050 BKN360 27/13 Q1020 BLU+
11:20
V
26 °C 10 km+ 35.000 ft 210°   210° 5 kt METAR ETWM 180920Z 21005KT 9999 FEW045 BKN350 26/13 Q1020 BLU+
10:20
V
24 °C 10 km+ 34.000 ft 190°   190° 4 kt METAR ETWM 180820Z 19004KT 9999 FEW036 BKN340 24/14 Q1020 BLU+
09:20
V
22 °C 10 km+ 37.000 ft 180°   180° 4 kt METAR ETWM 180720Z 18004KT 9999 FEW030 BKN370 22/14 Q1020 BLU+
08:20
V
18 °C 10 km+ - 160°   160° 4 kt METAR ETWM 180620Z 16004KT 9999 FEW030 SCT370 18/14 Q1020 BLU+
07:20
V
17 °C 10 km+ - Var   Var 2 kt METAR ETWM 180520Z VRB02KT 9999 FEW060 SCT380 17/13 Q1020 BLU+
06:20
V
13 °C 10 km+ - Var   Var 2 kt METAR ETWM 180420Z VRB02KT 9999 FEW060 13/12 Q1019 BLU+
05:20
L
14 °C 0 m - 090°   090° 2 kt METAR ETWM 180320Z AUTO 09002KT //// // ////// 14/12 Q1019 ///
04:20
L
14 °C 0 m - 090°   090° 2 kt METAR ETWM 180220Z AUTO 09002KT //// // ////// 14/12 Q1019 ///
03:20
L
16 °C 0 m - Var   Var 3 kt METAR ETWM 180120Z AUTO VRB03KT //// // ////// 16/12 Q1019 ///
02:20
L
16 °C 0 m - 090°   090° 3 kt METAR ETWM 180020Z AUTO 09003KT //// // ////// 16/13 Q1019 ///
01:20
L
17 °C 0 m - Var   Var 2 kt METAR ETWM 172320Z AUTO VRB02KT //// // ////// 17/13 Q1019 ///
00:20
L
16 °C 0 m - 110°   110° 2 kt METAR ETWM 172220Z AUTO 11002KT //// // ////// 16/13 Q1019 ///

17 maggio 2022

Tempo Codice Tempo metereologico Temp. Vista Nuvole Vento METAR/SPECI
23:20
L
16 °C 0 m - 110°   110° 2 kt METAR ETWM 172120Z AUTO 11002KT //// // ////// 16/13 Q1020 ///
22:20
L
17 °C 0 m - 040°   040° 1 kt METAR ETWM 172020Z AUTO 04001KT //// // ////// 17/13 Q1020 ///
21:20
L
19 °C 0 m - Var   Var 1 kt METAR ETWM 171920Z AUTO VRB01KT //// // ////// 19/13 Q1019 ///
20:20
L
20 °C 0 m - 180°   180° 3 kt METAR ETWM 171820Z AUTO 18003KT //// // ////// 20/12 Q1019 ///
19:20
L
22 °C 0 m - 140°   140° 4 kt METAR ETWM 171720Z AUTO 14004KT //// // ////// 22/11 Q1019 ///
18:20
L
23 °C 0 m - 230°   230° 3 kt METAR ETWM 171620Z AUTO 23003KT //// // ////// 23/11 Q1019 ///
17:20
L
22 °C 0 m - 220°   220° 4 kt METAR ETWM 171520Z AUTO 22004KT //// // ////// 22/11 Q1020 ///
Dati più vecchi

Scarica la nostra applicazione

Facile accesso a tutte le previsioni dell'aviazione sul tuo cellulare e tablet.
Con molte caratteristiche non disponibili sul sito web, come il supporto offline e una lista personale di aeroporti.

Noi e le terze parti seguiamo il tuo comportamento in internet sul nostro sito web con i cookie. Se continui, riteniamo che tu sia d'accordo con la nostra politica sui cookie. Per saperne di più